首页
METAR-TAF:

METAR-TAF

机场 :

Kirsch Municipal Airport

Sturgis, 密歇根州, 美国

纬度: 41-48-46N, 经度: 085-26-21W, 海拔: 282米

当前天气观测

该预报发布于13分钟前的11:55 UTC
风速5节,风向西转西北
温度 -5°C
湿度 79%
气压 1014 hPa
能見度: 16.1公里
多云层高于4400英尺
阴天层高于4900英尺

METAR: KIRS 271155Z AUTO 30005KT 10SM BKN044 OVC049 M05/M08 A2995 RMK AO2 T10501080 11040 21050

时间: 07:08 (12:08 UTC)


TAF: 丢失

超过4000个机场的气象观测和天气预报(METAR&TAF报告)。

可查询的气象台以黄色和红色小点在地图上表示。

将鼠标移到小点上方,可查看气象台名称。

然后点击查看天气观测和预报。

如需切换地图:点击带黑十字的绿色按钮放大地图;点击带横线的绿色按钮缩小地图;或者点击绿色箭头查看邻近地区的地图。


METAR-TAF: